Time;durP1;ratioP1;P1;durP2;ratioP2;P2;SDS_P1;SDS_P2;PMS_P1;PMS_P2;Temp;Humidity;BMP_temperature;BMP_pressure;BME280_temperature;BME280_humidity;BME280_pressure;Samples;Min_cycle;Max_cycle;Signal;HPM_P1;HPM_P2
2022/05/13 00:00:05;;;;;;;11.27;10.37;;;17.20;99.90;;;;;;5100332;28;20438;-44
2022/05/13 00:02:30;;;;;;;11.13;10.20;;;17.20;99.90;;;;;;5100354;28;20419;-44
2022/05/13 00:04:56;;;;;;;11.40;10.50;;;17.20;99.90;;;;;;5100519;28;20434;-44
2022/05/13 00:07:22;;;;;;;12.07;10.87;;;17.30;99.90;;;;;;5100288;28;20177;-45
2022/05/13 00:09:57;;;;;;;11.30;10.30;;;17.30;99.90;;;;;;5099793;28;20285;-45
2022/05/13 00:12:24;;;;;;;12.00;10.77;;;17.30;99.90;;;;;;5100203;28;20265;-44
2022/05/13 00:14:51;;;;;;;13.47;10.10;;;17.20;99.90;;;;;;5100129;28;20468;-44
2022/05/13 00:17:17;;;;;;;9.60;8.70;;;17.20;99.90;;;;;;5100394;28;20466;-45
2022/05/13 00:19:43;;;;;;;10.73;9.93;;;17.20;99.90;;;;;;5100354;28;20441;-45
2022/05/13 00:22:09;;;;;;;10.57;9.67;;;17.10;99.90;;;;;;5099971;28;20406;-47
2022/05/13 00:24:35;;;;;;;10.73;9.93;;;17.20;99.90;;;;;;5099724;28;20431;-44
2022/05/13 00:27:01;;;;;;;11.03;9.97;;;17.30;99.90;;;;;;5099764;28;20689;-45
2022/05/13 00:29:27;;;;;;;11.40;10.40;;;17.30;99.90;;;;;;5099458;28;20435;-45
2022/05/13 00:31:53;;;;;;;11.53;10.53;;;17.30;99.90;;;;;;5099735;28;20466;-45
2022/05/13 00:34:19;;;;;;;11.10;10.10;;;17.30;99.90;;;;;;5099753;28;20188;-45
2022/05/13 00:36:45;;;;;;;11.00;10.10;;;17.30;99.90;;;;;;5098638;28;20489;-45
2022/05/13 00:39:10;;;;;;;12.00;10.70;;;17.20;99.90;;;;;;5099370;28;20431;-45
2022/05/13 00:41:36;;;;;;;12.13;11.13;;;17.30;99.90;;;;;;5099734;28;20415;-45
2022/05/13 00:44:02;;;;;;;12.20;11.17;;;17.20;99.90;;;;;;5099288;28;20566;-45
2022/05/13 00:46:28;;;;;;;11.77;10.67;;;17.20;99.90;;;;;;5100099;28;20180;-45
2022/05/13 00:48:54;;;;;;;11.53;10.43;;;17.20;99.90;;;;;;5099320;28;20720;-45
2022/05/13 00:51:29;;;;;;;11.53;10.57;;;17.20;99.90;;;;;;5064968;28;20682;-44
2022/05/13 00:53:55;;;;;;;12.40;11.40;;;17.20;99.90;;;;;;5081953;28;20433;-46
2022/05/13 00:56:22;;;;;;;11.00;10.10;;;17.20;99.90;;;;;;5081140;28;20881;-45
2022/05/13 00:58:51;;;;;;;11.33;10.47;;;17.20;99.90;;;;;;5099113;28;20438;-45
2022/05/13 01:01:17;;;;;;;10.80;9.90;;;17.20;99.90;;;;;;5099274;28;20438;-45
2022/05/13 01:03:44;;;;;;;10.70;9.80;;;17.30;99.90;;;;;;5099421;28;20488;-44
2022/05/13 01:06:13;;;;;;;10.63;9.70;;;17.30;99.90;;;;;;5081188;28;20728;-45
2022/05/13 01:08:39;;;;;;;11.73;10.80;;;17.30;99.90;;;;;;5081354;28;20434;-45
2022/05/13 01:11:10;;;;;;;12.63;11.43;;;17.30;99.90;;;;;;5098858;28;20440;-45
2022/05/13 01:13:37;;;;;;;11.30;10.37;;;17.30;99.90;;;;;;5079992;28;20504;-44
2022/05/13 01:16:03;;;;;;;12.20;11.17;;;17.30;99.90;;;;;;5081396;28;20459;-45
2022/05/13 01:18:37;;;;;;;10.63;9.63;;;17.20;99.90;;;;;;5097500;28;20454;-45
2022/05/13 01:21:06;;;;;;;9.90;9.10;;;17.20;99.90;;;;;;5098947;28;20699;-45
2022/05/13 01:23:41;;;;;;;10.23;9.43;;;17.10;99.90;;;;;;5098725;28;20647;-45
2022/05/13 01:26:16;;;;;;;10.50;9.50;;;17.10;99.90;;;;;;5098860;28;20417;-44
2022/05/13 01:28:47;;;;;;;11.50;10.37;;;17.10;99.90;;;;;;5098765;28;20449;-45
2022/05/13 01:31:24;;;;;;;11.17;10.27;;;17.20;99.90;;;;;;5098392;28;20490;-44
2022/05/13 01:33:50;;;;;;;10.80;9.80;;;17.20;99.90;;;;;;5099098;28;20426;-45
2022/05/13 01:36:16;;;;;;;10.70;9.70;;;17.10;99.90;;;;;;5098254;28;20893;-46
2022/05/13 01:38:42;;;;;;;11.20;10.20;;;17.10;99.90;;;;;;5098874;28;20209;-45
2022/05/13 01:41:10;;;;;;;11.70;10.53;;;17.10;99.90;;;;;;5098948;28;21307;-45
2022/05/13 01:46:58;;;;;;;12.23;11.20;;;16.90;99.90;;;;;;5098404;28;20418;-44
2022/05/13 01:49:23;;;;;;;15.80;12.90;;;16.90;99.90;;;;;;5098491;28;20704;-45
2022/05/13 01:51:49;;;;;;;12.17;11.10;;;16.80;99.90;;;;;;5098460;28;20570;-46
2022/05/13 01:54:14;;;;;;;10.93;9.80;;;16.80;99.90;;;;;;5098791;28;20181;-45
2022/05/13 01:56:40;;;;;;;12.90;11.70;;;16.80;99.90;;;;;;5098415;28;20207;-45
2022/05/13 01:59:06;;;;;;;12.67;11.63;;;16.80;99.90;;;;;;5098206;28;20181;-44
2022/05/13 02:01:31;;;;;;;11.77;10.77;;;16.80;99.90;;;;;;5098562;28;20207;-44
2022/05/13 02:03:57;;;;;;;10.87;10.00;;;16.90;99.90;;;;;;5098233;28;20189;-45
2022/05/13 02:06:26;;;;;;;10.90;10.00;;;16.90;99.90;;;;;;5098349;28;20188;-44
2022/05/13 02:08:54;;;;;;;12.07;11.07;;;17.00;99.90;;;;;;5098235;28;20338;-44
2022/05/13 02:11:21;;;;;;;11.67;10.70;;;17.00;99.90;;;;;;5098701;28;20807;-44
2022/05/13 02:13:47;;;;;;;12.73;11.63;;;17.00;99.90;;;;;;5080329;28;20451;-45
2022/05/13 02:16:13;;;;;;;10.90;9.90;;;17.00;99.90;;;;;;5098026;28;20827;-44
2022/05/13 02:18:40;;;;;;;11.53;10.57;;;17.00;99.90;;;;;;5098242;28;20496;-45
2022/05/13 02:21:06;;;;;;;10.83;9.80;;;16.90;99.90;;;;;;5098170;28;20406;-44
2022/05/13 02:23:32;;;;;;;9.73;8.83;;;16.80;99.90;;;;;;5097786;28;20923;-44
2022/05/13 02:26:01;;;;;;;10.10;9.10;;;16.70;99.90;;;;;;5098140;28;20477;-45
2022/05/13 02:28:27;;;;;;;8.90;8.20;;;16.70;99.90;;;;;;5098580;28;20496;-44
2022/05/13 02:30:53;;;;;;;8.50;7.63;;;16.60;99.90;;;;;;5102293;28;20939;-44
2022/05/13 02:33:19;;;;;;;8.90;8.00;;;16.60;99.90;;;;;;5101911;28;20408;-44
2022/05/13 02:35:44;;;;;;;7.83;7.23;;;16.60;99.90;;;;;;5100925;28;20692;-44
2022/05/13 02:38:13;;;;;;;8.67;7.50;;;16.60;99.90;;;;;;5100705;28;20272;-44
2022/05/13 02:43:23;;;;;;;8.67;7.87;;;16.60;99.90;;;;;;5100438;28;20528;-45
2022/05/13 02:45:49;;;;;;;8.53;7.70;;;16.60;99.90;;;;;;5100765;28;20510;-44
2022/05/13 02:48:15;;;;;;;8.47;7.77;;;16.60;99.90;;;;;;5083066;28;20216;-45
2022/05/13 02:50:40;;;;;;;9.30;8.40;;;16.70;99.90;;;;;;5101834;28;20185;-45
2022/05/13 02:53:06;;;;;;;8.27;7.67;;;16.70;99.90;;;;;;5101760;28;20422;-45
2022/05/13 02:55:32;;;;;;;8.43;7.00;;;16.70;99.90;;;;;;5101314;28;20337;-44
2022/05/13 02:57:58;;;;;;;8.90;8.00;;;16.70;99.90;;;;;;5102200;28;20569;-45
2022/05/13 03:00:23;;;;;;;8.17;7.47;;;16.70;99.90;;;;;;5101845;28;20185;-44
2022/05/13 03:02:49;;;;;;;8.80;7.97;;;16.80;99.90;;;;;;5101805;28;20572;-45
2022/05/13 03:05:15;;;;;;;9.80;7.37;;;16.80;99.90;;;;;;5101900;28;20189;-54
2022/05/13 03:07:40;;;;;;;9.10;8.03;;;16.80;99.90;;;;;;5101366;28;20586;-44
2022/05/13 03:10:08;;;;;;;8.80;8.10;;;16.80;99.90;;;;;;5101697;28;20263;-45
2022/05/13 03:12:35;;;;;;;8.50;7.83;;;16.90;99.90;;;;;;5101408;28;20174;-45
2022/05/13 03:15:01;;;;;;;9.30;8.50;;;16.90;99.90;;;;;;5100698;28;20708;-45
2022/05/13 03:17:27;;;;;;;8.90;8.00;;;16.90;99.90;;;;;;5100767;28;20462;-44
2022/05/13 03:19:52;;;;;;;8.87;8.17;;;16.90;99.90;;;;;;5101165;28;20423;-45
2022/05/13 03:22:18;;;;;;;8.87;8.10;;;16.90;99.90;;;;;;5083633;28;20185;-45
2022/05/13 03:24:44;;;;;;;9.43;8.57;;;17.00;99.90;;;;;;5100862;28;20169;-45
2022/05/13 03:27:10;;;;;;;8.70;7.90;;;17.00;99.90;;;;;;5101340;28;20177;-45
2022/05/13 03:29:36;;;;;;;9.10;8.20;;;17.00;99.90;;;;;;5101775;28;20456;-45
2022/05/13 03:32:05;;;;;;;8.77;7.97;;;17.00;99.90;;;;;;5101416;28;20269;-45
2022/05/13 03:34:31;;;;;;;9.90;8.67;;;17.00;99.90;;;;;;5100770;28;20173;-45
2022/05/13 03:36:56;;;;;;;8.80;8.20;;;16.90;99.90;;;;;;5100216;28;20497;-45
2022/05/13 03:39:22;;;;;;;9.27;8.47;;;16.90;99.90;;;;;;5101002;28;20471;-44
2022/05/13 03:41:48;;;;;;;9.03;8.13;;;16.90;99.90;;;;;;5100167;28;20171;-45
2022/05/13 03:44:13;;;;;;;10.67;9.77;;;16.90;99.90;;;;;;5099871;28;20584;-44
2022/05/13 03:46:39;;;;;;;9.37;8.47;;;16.90;99.90;;;;;;5099470;28;20181;-45
2022/05/13 03:49:05;;;;;;;11.13;9.77;;;16.90;99.90;;;;;;5099401;28;20189;-45
2022/05/13 03:51:32;;;;;;;9.27;8.47;;;16.90;99.90;;;;;;5099418;28;20192;-45
2022/05/13 03:53:58;;;;;;;9.17;8.27;;;16.90;99.90;;;;;;5099316;28;20428;-44
2022/05/13 03:56:24;;;;;;;9.33;8.53;;;16.90;99.90;;;;;;5098507;28;20523;-45
2022/05/13 03:58:50;;;;;;;8.40;7.70;;;17.00;99.90;;;;;;5098897;28;20874;-45
2022/05/13 04:01:16;;;;;;;9.10;8.30;;;17.00;99.90;;;;;;5081533;28;20496;-45
2022/05/13 04:03:42;;;;;;;8.83;7.93;;;17.00;99.90;;;;;;5081053;28;20728;-45
2022/05/13 04:08:57;;;;;;;8.33;7.47;;;17.00;99.90;;;;;;5098448;28;20184;-46
2022/05/13 04:11:24;;;;;;;7.87;7.07;;;17.00;99.90;;;;;;5097999;28;20456;-45
2022/05/13 04:16:35;;;;;;;9.03;8.10;;;17.00;99.90;;;;;;5097997;28;20503;-45
2022/05/13 04:19:01;;;;;;;7.47;6.77;;;17.00;99.90;;;;;;5097754;28;20449;-45
2022/05/13 04:21:29;;;;;;;7.90;7.30;;;17.00;99.90;;;;;;5098465;28;20525;-45
2022/05/13 04:23:57;;;;;;;8.37;7.57;;;17.00;99.90;;;;;;5098327;28;20526;-45
2022/05/13 04:26:23;;;;;;;7.60;6.90;;;17.00;99.90;;;;;;5098820;28;20430;-45
2022/05/13 04:28:51;;;;;;;6.90;6.33;;;17.00;99.90;;;;;;5099488;28;20440;-45
2022/05/13 04:31:20;;;;;;;8.60;7.80;;;17.00;99.90;;;;;;5077263;28;20476;-45
2022/05/13 04:33:46;;;;;;;8.07;7.33;;;17.00;99.90;;;;;;5079320;28;20847;-46
2022/05/13 04:36:12;;;;;;;9.30;8.37;;;16.90;99.90;;;;;;5063658;28;20475;-45
2022/05/13 04:38:38;;;;;;;9.07;7.87;;;16.90;99.90;;;;;;5058819;28;20684;-45
2022/05/13 04:43:49;;;;;;;9.03;8.13;;;17.00;99.90;;;;;;5058625;28;20634;-44
2022/05/13 04:46:15;;;;;;;8.33;7.63;;;17.10;99.90;;;;;;5058005;28;20422;-45
2022/05/13 04:48:41;;;;;;;8.47;7.77;;;17.10;99.90;;;;;;5057838;28;20443;-45
2022/05/13 04:51:07;;;;;;;9.20;8.23;;;17.10;99.90;;;;;;5058309;28;20539;-45
2022/05/13 04:53:35;;;;;;;10.03;9.03;;;17.10;99.90;;;;;;5056295;28;20192;-45
2022/05/13 04:56:04;;;;;;;8.83;8.13;;;17.10;99.90;;;;;;5056782;28;20187;-44
2022/05/13 04:58:30;;;;;;;9.77;8.93;;;17.10;99.90;;;;;;5055668;28;20428;-45
2022/05/13 05:00:58;;;;;;;9.30;8.47;;;17.00;99.90;;;;;;5057746;28;20405;-45
2022/05/13 05:03:27;;;;;;;10.23;9.17;;;17.00;99.90;;;;;;5057115;28;20246;-45
2022/05/13 05:05:53;;;;;;;8.67;7.87;;;17.00;99.90;;;;;;5055399;28;20426;-45
2022/05/13 05:08:18;;;;;;;10.50;8.40;;;17.00;99.90;;;;;;5056570;28;20850;-45
2022/05/13 05:10:45;;;;;;;9.37;8.57;;;17.00;99.90;;;;;;5057078;28;20493;-45
2022/05/13 05:13:30;;;;;;;9.07;8.10;;;17.00;99.90;;;;;;5056480;28;20462;-45
2022/05/13 05:15:57;;;;;;;8.83;8.03;;;17.00;99.90;;;;;;5054998;28;20412;-45
2022/05/13 05:18:23;;;;;;;8.60;7.80;;;17.00;99.90;;;;;;5052188;28;20429;-45
2022/05/13 05:20:49;;;;;;;8.77;7.87;;;17.10;99.90;;;;;;5052778;28;20503;-45
2022/05/13 05:23:21;;;;;;;8.07;7.37;;;17.10;99.90;;;;;;5055918;28;20527;-45
2022/05/13 05:25:47;;;;;;;7.57;6.87;;;17.10;99.90;;;;;;5055138;28;20425;-45
2022/05/13 05:28:13;;;;;;;8.13;7.37;;;17.10;99.90;;;;;;5054565;28;20452;-45
2022/05/13 05:30:40;;;;;;;11.13;7.40;;;17.10;99.90;;;;;;5066145;28;20465;-45
2022/05/13 05:33:06;;;;;;;8.03;7.23;;;17.10;99.90;;;;;;5093340;28;20174;-45
2022/05/13 05:35:33;;;;;;;8.10;7.40;;;17.20;99.90;;;;;;5093984;28;20415;-44
2022/05/13 05:37:59;;;;;;;7.77;7.07;;;17.20;99.90;;;;;;5093659;28;20466;-45
2022/05/13 05:40:24;;;;;;;7.67;7.03;;;17.30;99.90;;;;;;5092725;28;20431;-45
2022/05/13 05:42:50;;;;;;;8.57;7.77;;;17.40;99.90;;;;;;5095442;28;20169;-46
2022/05/13 05:45:18;;;;;;;8.03;7.33;;;17.40;99.90;;;;;;5095107;28;20184;-45
2022/05/13 05:47:44;;;;;;;7.33;6.63;;;17.50;99.90;;;;;;5094454;28;20481;-45
2022/05/13 05:50:14;;;;;;;10.13;8.00;;;17.50;99.90;;;;;;5075581;28;20430;-45
2022/05/13 05:52:40;;;;;;;8.40;7.20;;;17.50;99.90;;;;;;5074740;28;20193;-45
2022/05/13 05:57:58;;;;;;;6.90;6.30;;;17.50;99.90;;;;;;5077362;28;20269;-44
2022/05/13 06:00:25;;;;;;;10.93;7.30;;;17.50;99.90;;;;;;5094816;28;20469;-43
2022/05/13 06:02:50;;;;;;;8.13;7.30;;;17.50;99.90;;;;;;5093206;28;20469;-45
2022/05/13 06:05:17;;;;;;;7.43;6.63;;;17.50;99.90;;;;;;5093028;28;20470;-44
2022/05/13 06:07:45;;;;;;;7.57;6.77;;;17.60;99.90;;;;;;5093473;28;20296;-45
2022/05/13 06:10:12;;;;;;;7.50;6.80;;;17.60;99.90;;;;;;5093387;28;20431;-45
2022/05/13 06:12:38;;;;;;;10.60;7.90;;;17.50;99.90;;;;;;5093982;28;20448;-45
2022/05/13 06:15:04;;;;;;;7.50;6.70;;;17.50;99.90;;;;;;5094244;28;21156;-45
2022/05/13 06:17:29;;;;;;;7.07;6.37;;;17.40;99.90;;;;;;5093675;28;20523;-45
2022/05/13 06:19:55;;;;;;;7.43;6.83;;;17.40;99.90;;;;;;5093760;28;20538;-45
2022/05/13 06:22:21;;;;;;;7.03;6.27;;;17.40;99.90;;;;;;5094468;28;20234;-45
2022/05/13 06:24:47;;;;;;;8.80;6.57;;;17.50;99.90;;;;;;5095140;28;20559;-45
2022/05/13 06:27:13;;;;;;;6.67;6.10;;;17.70;99.90;;;;;;5093959;28;20425;-46
2022/05/13 06:29:38;;;;;;;6.57;5.87;;;17.90;99.90;;;;;;5094875;28;20436;-45
2022/05/13 06:32:05;;;;;;;6.80;6.20;;;18.00;99.90;;;;;;5095582;28;20518;-45
2022/05/13 06:34:31;;;;;;;7.43;6.33;;;18.00;99.90;;;;;;5095999;28;20338;-45
2022/05/13 06:36:56;;;;;;;6.33;5.43;;;18.10;99.90;;;;;;5095731;28;20557;-45
2022/05/13 06:39:22;;;;;;;6.53;5.93;;;18.20;99.90;;;;;;5095785;28;20437;-45
2022/05/13 06:41:48;;;;;;;6.87;6.27;;;18.20;99.90;;;;;;5093864;28;20185;-45
2022/05/13 06:44:15;;;;;;;8.37;6.03;;;18.20;99.90;;;;;;5092864;28;20182;-45
2022/05/13 06:46:41;;;;;;;8.77;6.77;;;18.20;99.90;;;;;;5093876;28;20407;-45
2022/05/13 06:49:08;;;;;;;5.70;5.20;;;18.20;99.90;;;;;;5093684;28;20783;-45
2022/05/13 06:51:34;;;;;;;6.77;5.70;;;18.20;99.90;;;;;;5094511;28;20497;-45
2022/05/13 06:54:06;;;;;;;6.20;5.60;;;18.30;99.90;;;;;;5094015;28;20555;-45
2022/05/13 06:56:32;;;;;;;6.43;5.83;;;18.30;99.90;;;;;;5094625;28;20209;-45
2022/05/13 06:58:58;;;;;;;6.60;4.93;;;18.20;99.40;;;;;;5094592;28;20438;-45
2022/05/13 07:01:23;;;;;;;5.90;5.33;;;18.20;98.90;;;;;;5095114;28;20411;-45
2022/05/13 07:03:49;;;;;;;7.10;5.10;;;18.20;98.40;;;;;;5095624;28;20185;-46
2022/05/13 07:06:15;;;;;;;5.93;4.40;;;18.20;98.10;;;;;;5095546;28;20176;-49
2022/05/13 07:08:41;;;;;;;6.30;4.60;;;18.20;97.90;;;;;;5095803;28;20192;-49
2022/05/13 07:11:07;;;;;;;7.17;4.27;;;18.10;97.70;;;;;;5095787;28;20416;-48
2022/05/13 07:13:34;;;;;;;7.80;4.80;;;18.10;97.50;;;;;;5094338;28;20439;-49
2022/05/13 07:16:00;;;;;;;7.57;4.90;;;18.10;96.80;;;;;;5096699;28;20173;-49
2022/05/13 07:18:27;;;;;;;4.87;4.10;;;18.00;96.70;;;;;;5098770;28;20441;-49
2022/05/13 07:20:53;;;;;;;5.90;4.57;;;17.90;96.80;;;;;;5099477;28;20422;-49
2022/05/13 07:23:18;;;;;;;4.47;4.07;;;17.90;96.90;;;;;;5100507;28;20421;-42
2022/05/13 07:25:44;;;;;;;6.07;4.00;;;17.90;96.70;;;;;;5081328;28;20407;-41
2022/05/13 07:28:10;;;;;;;6.33;4.30;;;17.80;96.20;;;;;;5101312;28;20454;-44
2022/05/13 07:30:37;;;;;;;6.37;4.13;;;17.80;96.20;;;;;;5098521;28;20481;-41
2022/05/13 07:33:03;;;;;;;4.50;3.50;;;17.70;96.10;;;;;;5081036;28;20437;-44
2022/05/13 07:35:29;;;;;;;5.60;4.00;;;17.70;96.40;;;;;;5099627;28;20869;-40
2022/05/13 07:37:55;;;;;;;9.43;4.27;;;17.70;96.80;;;;;;5100456;28;20560;-43
2022/05/13 07:43:05;;;;;;;8.50;3.90;;;17.70;97.20;;;;;;5098127;28;20228;-41
2022/05/13 07:45:32;;;;;;;9.87;4.27;;;17.70;97.30;;;;;;5097304;28;20594;-42
2022/05/13 07:48:01;;;;;;;6.10;4.63;;;17.70;97.20;;;;;;5064260;28;20717;-42
2022/05/13 07:50:27;;;;;;;7.13;4.50;;;17.60;97.30;;;;;;5099207;28;20442;-43
2022/05/13 07:52:53;;;;;;;6.80;4.50;;;17.70;97.20;;;;;;5098408;28;20423;-42
2022/05/13 07:55:19;;;;;;;7.70;4.10;;;17.80;97.20;;;;;;5097348;28;20431;-42
2022/05/13 07:57:45;;;;;;;6.57;4.37;;;17.90;96.90;;;;;;5096222;28;20473;-40
2022/05/13 08:00:25;;;;;;;7.30;4.50;;;17.70;96.80;;;;;;5077678;28;20985;-42
2022/05/13 08:02:58;;;;;;;5.13;3.43;;;17.80;97.00;;;;;;5095458;28;20416;-41
2022/05/13 08:05:24;;;;;;;8.87;4.53;;;18.00;97.60;;;;;;5078800;28;20452;-41
2022/05/13 08:08:18;;;;;;;7.30;3.70;;;18.20;97.70;;;;;;5097848;28;20511;-44
2022/05/13 08:10:47;;;;;;;6.37;4.07;;;18.40;97.00;;;;;;5079742;28;20538;-43
2022/05/13 08:13:13;;;;;;;6.10;3.40;;;18.60;96.20;;;;;;5080558;28;20903;-40
2022/05/13 08:15:39;;;;;;;4.33;3.20;;;18.70;96.10;;;;;;5098354;28;20416;-40
2022/05/13 08:18:05;;;;;;;6.73;3.70;;;18.80;95.80;;;;;;5097851;28;20902;-40
2022/05/13 08:20:31;;;;;;;8.90;3.93;;;18.90;95.90;;;;;;5098928;28;20407;-39
2022/05/13 08:22:57;;;;;;;3.90;3.00;;;18.90;94.80;;;;;;5081786;28;20429;-40
2022/05/13 08:25:24;;;;;;;6.37;3.50;;;18.90;94.20;;;;;;5097500;28;20497;-42
2022/05/13 08:27:50;;;;;;;7.20;3.40;;;18.80;93.60;;;;;;5097391;28;20756;-40
2022/05/13 08:30:16;;;;;;;5.03;3.60;;;18.70;93.40;;;;;;5096985;28;20432;-40
2022/05/13 08:32:49;;;;;;;5.67;3.93;;;18.60;92.70;;;;;;5079917;28;20458;-41
2022/05/13 08:35:15;;;;;;;7.17;3.33;;;18.60;92.80;;;;;;5096734;28;20503;-42
2022/05/13 08:37:46;;;;;;;5.83;3.30;;;18.60;92.30;;;;;;5094747;28;20470;-44
2022/05/13 08:40:47;;;;;;;4.97;2.80;;;18.60;92.00;;;;;;5079549;28;20428;-40
2022/05/13 08:43:16;;;;;;;9.60;3.27;;;18.70;91.40;;;;;;5057111;28;20407;-42
2022/05/13 08:45:54;;;;;;;5.13;3.30;;;18.90;91.10;;;;;;5081365;28;20443;-40
2022/05/13 08:48:30;;;;;;;7.77;4.53;;;19.00;91.30;;;;;;5099433;28;20428;-41
2022/05/13 08:51:10;;;;;;;8.23;4.10;;;19.10;90.60;;;;;;5099609;28;20531;-40
2022/05/13 08:53:54;;;;;;;6.60;3.20;;;19.10;90.70;;;;;;5098440;28;20427;-45
2022/05/13 08:56:29;;;;;;;4.73;3.10;;;19.20;91.10;;;;;;5098188;28;20713;-41
2022/05/13 08:59:14;;;;;;;4.10;3.03;;;19.40;91.20;;;;;;5080830;28;20715;-41
2022/05/13 09:01:47;;;;;;;8.43;3.30;;;19.50;91.10;;;;;;5099013;28;20482;-41
2022/05/13 09:04:27;;;;;;;5.63;3.20;;;19.60;90.60;;;;;;5079738;28;20451;-40
2022/05/13 09:06:58;;;;;;;6.67;3.10;;;19.70;88.80;;;;;;5080281;28;20457;-40
2022/05/13 09:09:24;;;;;;;6.60;3.77;;;19.60;88.30;;;;;;5061772;28;20451;-41
2022/05/13 09:12:04;;;;;;;5.40;3.53;;;19.60;87.80;;;;;;5062138;28;20685;-40
2022/05/13 09:14:52;;;;;;;5.53;3.13;;;19.60;87.00;;;;;;5097265;28;20247;-42
2022/05/13 09:17:36;;;;;;;4.33;3.10;;;19.60;87.10;;;;;;5096466;28;20506;-45
2022/05/13 09:20:11;;;;;;;4.80;2.90;;;19.70;86.60;;;;;;5097171;28;20427;-44
2022/05/13 09:22:42;;;;;;;4.97;2.90;;;19.60;85.50;;;;;;5097840;28;20480;-43
2022/05/13 09:25:20;;;;;;;5.80;3.07;;;19.70;86.50;;;;;;5099145;28;20441;-42
2022/05/13 09:27:49;;;;;;;4.40;2.70;;;19.70;86.70;;;;;;5078894;28;20427;-44
2022/05/13 09:30:20;;;;;;;6.73;3.03;;;19.80;87.60;;;;;;5095529;28;20926;-43
2022/05/13 09:32:46;;;;;;;4.10;3.30;;;19.90;85.90;;;;;;5093896;28;20498;-42
2022/05/13 09:35:35;;;;;;;7.23;3.20;;;20.10;85.20;;;;;;5096268;28;21079;-42
2022/05/13 09:38:24;;;;;;;7.07;3.50;;;20.40;84.50;;;;;;5076198;28;20201;-39
2022/05/13 09:41:08;;;;;;;6.10;2.90;;;20.80;83.40;;;;;;5095162;28;20415;-43
2022/05/13 09:43:36;;;;;;;4.63;2.80;;;21.20;82.50;;;;;;5094990;28;20415;-41
2022/05/13 09:46:05;;;;;;;4.00;2.70;;;21.40;80.90;;;;;;5095712;28;20468;-42
2022/05/13 09:48:33;;;;;;;6.27;3.37;;;21.40;80.60;;;;;;5094735;28;20426;-45
2022/05/13 09:51:18;;;;;;;4.87;3.43;;;21.40;79.80;;;;;;5098011;28;20434;-36
2022/05/13 09:54:05;;;;;;;4.20;3.00;;;21.40;79.70;;;;;;5095292;28;20439;-40
2022/05/13 09:56:43;;;;;;;5.30;2.70;;;21.40;79.20;;;;;;5094244;28;20456;-44
2022/05/13 09:59:28;;;;;;;5.97;3.33;;;21.40;79.90;;;;;;5093626;28;20435;-40
2022/05/13 10:01:54;;;;;;;5.10;2.53;;;21.50;80.00;;;;;;5093243;28;20758;-42
2022/05/13 10:04:25;;;;;;;5.47;2.80;;;21.60;80.10;;;;;;5076587;28;20586;-40
2022/05/13 10:07:03;;;;;;;5.27;3.03;;;21.60;78.10;;;;;;5074880;28;20175;-41
2022/05/13 10:15:37;;;;;;;6.20;3.03;;;22.30;76.00;;;;;;5074149;28;20696;-40
2022/05/13 10:18:14;;;;;;;4.10;3.27;;;22.40;74.30;;;;;;5073600;28;20461;-39
2022/05/13 10:20:41;;;;;;;5.03;3.43;;;22.30;73.30;;;;;;5058605;28;20408;-43
2022/05/13 10:23:12;;;;;;;4.60;3.17;;;21.80;72.60;;;;;;5058956;28;20871;-43
2022/05/13 10:26:04;;;;;;;4.10;3.07;;;21.70;72.80;;;;;;5057388;28;20425;-43
2022/05/13 10:28:40;;;;;;;6.43;3.23;;;21.60;72.50;;;;;;5053945;28;20415;-43
2022/05/13 10:31:10;;;;;;;6.90;3.10;;;21.70;72.10;;;;;;5075096;28;20588;-43
2022/05/13 10:33:55;;;;;;;6.50;3.37;;;21.50;72.00;;;;;;5058406;28;20811;-42
2022/05/13 10:36:22;;;;;;;5.57;3.40;;;21.30;72.50;;;;;;5072956;28;20566;-40
2022/05/13 10:39:04;;;;;;;6.60;3.60;;;21.20;72.20;;;;;;5095175;28;20427;-40
2022/05/13 10:41:38;;;;;;;6.10;4.10;;;20.90;71.70;;;;;;5094496;28;20417;-40
2022/05/13 10:44:17;;;;;;;6.33;3.30;;;20.90;72.50;;;;;;5094506;28;20823;-39
2022/05/13 10:46:48;;;;;;;5.37;3.70;;;20.90;74.30;;;;;;5094036;28;20420;-46
2022/05/13 10:49:14;;;;;;;5.00;3.67;;;20.70;73.90;;;;;;5095325;28;20829;-45
2022/05/13 10:52:01;;;;;;;5.10;3.77;;;20.60;74.00;;;;;;5078176;28;20434;-42
2022/05/13 10:54:50;;;;;;;6.87;4.23;;;20.60;74.50;;;;;;5077568;28;20277;-43
2022/05/13 10:57:30;;;;;;;6.20;4.53;;;20.50;75.40;;;;;;5079635;28;20469;-42
2022/05/13 11:00:20;;;;;;;4.87;3.90;;;20.40;75.20;;;;;;5098121;28;20422;-42
2022/05/13 11:03:04;;;;;;;5.63;4.53;;;20.30;75.80;;;;;;5098977;28;20516;-43
2022/05/13 11:05:57;;;;;;;6.30;4.50;;;20.30;77.20;;;;;;5081980;28;20440;-43
2022/05/13 11:08:37;;;;;;;4.93;3.80;;;20.10;76.40;;;;;;5099022;28;20689;-43
2022/05/13 11:11:19;;;;;;;8.60;4.93;;;20.20;76.80;;;;;;5098593;28;20681;-40
2022/05/13 11:14:32;;;;;;;5.73;3.80;;;20.20;76.90;;;;;;5099535;28;20994;-41
2022/05/13 11:17:25;;;;;;;5.00;3.83;;;20.40;77.70;;;;;;5098685;28;20872;-39
2022/05/13 11:20:11;;;;;;;5.53;4.23;;;20.50;78.30;;;;;;5097330;28;20766;-42
2022/05/13 11:22:44;;;;;;;7.20;5.27;;;20.70;77.50;;;;;;5098148;28;20507;-43
2022/05/13 11:28:25;;;;;;;4.90;3.80;;;20.50;76.80;;;;;;5097198;28;20397;-40
2022/05/13 11:31:02;;;;;;;6.30;4.23;;;20.60;79.00;;;;;;5096312;28;20463;-41
2022/05/13 11:34:06;;;;;;;6.40;4.70;;;20.60;77.50;;;;;;5097305;28;20503;-39
2022/05/13 11:36:45;;;;;;;5.57;4.60;;;20.50;77.30;;;;;;5046476;28;20943;-40
2022/05/13 11:39:49;;;;;;;6.13;4.80;;;20.50;78.50;;;;;;5099950;28;20472;-40
2022/05/13 11:42:24;;;;;;;7.63;4.67;;;20.50;77.70;;;;;;5098249;28;20768;-40
2022/05/13 11:45:09;;;;;;;5.60;4.77;;;20.50;77.80;;;;;;5081437;28;20769;-43
2022/05/13 11:47:58;;;;;;;4.93;4.10;;;20.50;77.80;;;;;;5098095;28;20412;-42
2022/05/13 11:50:29;;;;;;;5.20;4.60;;;20.70;78.60;;;;;;5081333;28;20440;-42
2022/05/13 11:52:57;;;;;;;7.20;3.50;;;21.20;77.00;;;;;;5098586;28;20751;-41
2022/05/13 11:55:47;;;;;;;5.10;4.37;;;21.70;76.80;;;;;;5079719;28;20423;-44
2022/05/13 11:58:44;;;;;;;7.20;4.73;;;22.30;73.60;;;;;;5096824;28;20518;-41
2022/05/13 12:01:10;;;;;;;5.20;4.50;;;22.50;70.90;;;;;;5095338;28;20399;-40
2022/05/13 12:03:38;;;;;;;6.50;4.90;;;22.50;70.60;;;;;;5077756;28;20754;-42
2022/05/13 12:06:10;;;;;;;5.50;4.57;;;22.60;69.90;;;;;;5095352;28;20407;-40
2022/05/13 12:08:36;;;;;;;3.97;3.40;;;22.70;70.60;;;;;;5096172;28;20426;-43
2022/05/13 12:11:02;;;;;;;9.30;4.47;;;22.80;69.50;;;;;;5099236;28;20486;-41
2022/05/13 12:13:53;;;;;;;5.57;4.10;;;23.10;70.30;;;;;;5097560;28;20645;-41
2022/05/13 12:16:43;;;;;;;5.33;4.20;;;23.20;68.30;;;;;;5080943;28;20169;-43
2022/05/13 12:19:31;;;;;;;5.00;4.50;;;23.30;68.70;;;;;;5099095;28;20415;-43
2022/05/13 12:22:04;;;;;;;5.83;4.57;;;23.50;67.80;;;;;;5081664;28;20817;-44
2022/05/13 12:24:55;;;;;;;5.27;4.47;;;23.60;66.90;;;;;;5097047;28;20850;-42
2022/05/13 12:27:36;;;;;;;6.17;4.60;;;23.50;66.60;;;;;;5096023;28;20432;-41
2022/05/13 12:30:12;;;;;;;11.40;4.80;;;23.50;67.20;;;;;;5098453;28;20526;-42
2022/05/13 12:32:43;;;;;;;5.97;4.60;;;23.70;65.40;;;;;;5079586;28;20436;-41
2022/05/13 12:38:14;;;;;;;4.93;3.60;;;23.70;66.40;;;;;;5082338;28;20525;-43
2022/05/13 12:40:59;;;;;;;7.57;4.07;;;24.60;65.30;;;;;;5073292;28;20432;-45
2022/05/13 12:44:08;;;;;;;7.03;4.17;;;25.20;61.60;;;;;;5077279;28;20189;-42
2022/05/13 12:46:49;;;;;;;4.43;4.03;;;26.30;58.60;;;;;;4996222;28;20422;-42
2022/05/13 12:49:24;;;;;;;3.60;3.30;;;26.40;57.00;;;;;;4996989;28;20527;-44
2022/05/13 12:51:53;;;;;;;5.43;3.80;;;26.40;56.50;;;;;;5051379;28;20449;-42
2022/05/13 12:54:21;;;;;;;4.80;3.77;;;26.50;55.50;;;;;;5078373;28;20421;-42
2022/05/13 12:56:53;;;;;;;4.13;3.60;;;26.80;55.40;;;;;;5081085;28;20463;-44
2022/05/13 12:59:24;;;;;;;5.13;3.50;;;27.20;54.00;;;;;;5094669;28;20450;-44
2022/05/13 13:01:55;;;;;;;12.30;4.13;;;27.60;52.20;;;;;;5094700;28;21003;-42
2022/05/13 13:04:23;;;;;;;4.50;3.10;;;28.00;51.40;;;;;;5095536;28;20421;-41
2022/05/13 13:06:50;;;;;;;4.07;3.63;;;28.40;50.40;;;;;;5075223;28;20849;-42
2022/05/13 13:09:21;;;;;;;3.57;3.27;;;28.90;49.60;;;;;;5088291;28;20439;-42
2022/05/13 13:12:05;;;;;;;5.80;3.23;;;29.10;47.60;;;;;;5095984;28;20442;-41
2022/05/13 13:14:47;;;;;;;4.77;3.50;;;28.60;47.40;;;;;;5096083;28;20420;-40
2022/05/13 13:17:37;;;;;;;4.07;3.63;;;28.20;48.20;;;;;;5097532;28;20490;-41
2022/05/13 13:20:05;;;;;;;4.30;3.57;;;28.40;47.90;;;;;;5096552;28;20446;-41
2022/05/13 13:22:42;;;;;;;4.70;3.50;;;28.20;47.50;;;;;;5096123;28;20845;-43
2022/05/13 13:25:27;;;;;;;4.37;3.30;;;28.20;47.90;;;;;;5095179;28;20456;-41
2022/05/13 13:28:01;;;;;;;4.27;3.30;;;28.10;47.60;;;;;;5095293;28;20421;-44
2022/05/13 13:30:29;;;;;;;6.10;3.47;;;28.20;47.80;;;;;;5095334;28;20536;-46
2022/05/13 13:32:56;;;;;;;4.07;2.97;;;28.70;47.10;;;;;;5094952;28;20487;-42